sensor_id;sensor_type;location;lat;lon;timestamp;P1;durP1;ratioP1;P2;durP2;ratioP2
44512;SDS011;30219;50.588;9.504;2023-01-28T00:02:20;6.03;;;3.60;;
44512;SDS011;30219;50.588;9.504;2023-01-28T00:04:46;6.25;;;3.97;;
44512;SDS011;30219;50.588;9.504;2023-01-28T00:07:12;6.47;;;4.18;;
44512;SDS011;30219;50.588;9.504;2023-01-28T00:09:38;5.88;;;3.50;;
44512;SDS011;30219;50.588;9.504;2023-01-28T00:12:03;5.72;;;3.40;;
44512;SDS011;30219;50.588;9.504;2023-01-28T00:14:29;5.63;;;3.30;;
44512;SDS011;30219;50.588;9.504;2023-01-28T00:16:55;5.22;;;3.80;;
44512;SDS011;30219;50.588;9.504;2023-01-28T00:19:21;8.93;;;3.83;;
44512;SDS011;30219;50.588;9.504;2023-01-28T00:21:47;8.82;;;4.47;;
44512;SDS011;30219;50.588;9.504;2023-01-28T00:24:12;9.13;;;4.00;;
44512;SDS011;30219;50.588;9.504;2023-01-28T00:26:38;7.05;;;3.65;;
44512;SDS011;30219;50.588;9.504;2023-01-28T00:29:03;6.82;;;4.43;;
44512;SDS011;30219;50.588;9.504;2023-01-28T00:31:29;6.10;;;3.90;;
44512;SDS011;30219;50.588;9.504;2023-01-28T00:33:55;6.38;;;4.22;;
44512;SDS011;30219;50.588;9.504;2023-01-28T00:36:21;7.53;;;4.22;;
44512;SDS011;30219;50.588;9.504;2023-01-28T00:38:52;5.55;;;3.67;;
44512;SDS011;30219;50.588;9.504;2023-01-28T00:41:20;6.20;;;3.75;;
44512;SDS011;30219;50.588;9.504;2023-01-28T00:43:48;6.88;;;3.90;;
44512;SDS011;30219;50.588;9.504;2023-01-28T00:46:14;7.38;;;3.80;;
44512;SDS011;30219;50.588;9.504;2023-01-28T00:48:40;4.95;;;3.38;;
44512;SDS011;30219;50.588;9.504;2023-01-28T00:51:07;6.90;;;3.63;;
44512;SDS011;30219;50.588;9.504;2023-01-28T00:53:34;10.55;;;4.38;;
44512;SDS011;30219;50.588;9.504;2023-01-28T00:56:01;9.27;;;4.60;;
44512;SDS011;30219;50.588;9.504;2023-01-28T00:58:27;7.57;;;4.53;;
44512;SDS011;30219;50.588;9.504;2023-01-28T01:00:52;16.10;;;5.10;;
44512;SDS011;30219;50.588;9.504;2023-01-28T01:03:18;8.98;;;4.68;;
44512;SDS011;30219;50.588;9.504;2023-01-28T01:05:44;9.32;;;5.28;;
44512;SDS011;30219;50.588;9.504;2023-01-28T01:08:10;9.05;;;5.07;;
44512;SDS011;30219;50.588;9.504;2023-01-28T01:10:36;9.15;;;4.85;;
44512;SDS011;30219;50.588;9.504;2023-01-28T01:13:02;6.13;;;3.97;;
44512;SDS011;30219;50.588;9.504;2023-01-28T01:15:28;7.20;;;4.40;;
44512;SDS011;30219;50.588;9.504;2023-01-28T01:17:53;6.93;;;4.00;;
44512;SDS011;30219;50.588;9.504;2023-01-28T01:20:20;7.13;;;4.57;;
44512;SDS011;30219;50.588;9.504;2023-01-28T01:22:47;9.23;;;5.03;;
44512;SDS011;30219;50.588;9.504;2023-01-28T01:25:13;8.82;;;4.50;;
44512;SDS011;30219;50.588;9.504;2023-01-28T01:27:41;9.40;;;4.45;;
44512;SDS011;30219;50.588;9.504;2023-01-28T01:30:07;12.25;;;5.15;;
44512;SDS011;30219;50.588;9.504;2023-01-28T01:32:34;10.40;;;4.75;;
44512;SDS011;30219;50.588;9.504;2023-01-28T01:35:00;9.32;;;4.88;;
44512;SDS011;30219;50.588;9.504;2023-01-28T01:37:26;7.22;;;4.55;;
44512;SDS011;30219;50.588;9.504;2023-01-28T01:39:52;10.23;;;4.43;;
44512;SDS011;30219;50.588;9.504;2023-01-28T01:42:18;7.03;;;4.68;;
44512;SDS011;30219;50.588;9.504;2023-01-28T01:45:03;9.65;;;4.63;;
44512;SDS011;30219;50.588;9.504;2023-01-28T01:50:50;9.13;;;5.05;;
44512;SDS011;30219;50.588;9.504;2023-01-28T01:52:55;7.22;;;4.50;;
44512;SDS011;30219;50.588;9.504;2023-01-28T01:55:24;10.57;;;5.07;;
44512;SDS011;30219;50.588;9.504;2023-01-28T01:57:53;6.43;;;4.28;;
44512;SDS011;30219;50.588;9.504;2023-01-28T02:00:22;10.13;;;5.25;;
44512;SDS011;30219;50.588;9.504;2023-01-28T02:02:48;7.25;;;4.90;;
44512;SDS011;30219;50.588;9.504;2023-01-28T02:05:17;6.50;;;3.70;;
44512;SDS011;30219;50.588;9.504;2023-01-28T02:07:44;6.68;;;3.90;;
44512;SDS011;30219;50.588;9.504;2023-01-28T02:10:12;6.45;;;4.07;;
44512;SDS011;30219;50.588;9.504;2023-01-28T02:12:46;6.55;;;3.75;;
44512;SDS011;30219;50.588;9.504;2023-01-28T02:15:16;9.52;;;4.00;;
44512;SDS011;30219;50.588;9.504;2023-01-28T02:17:45;7.47;;;3.40;;
44512;SDS011;30219;50.588;9.504;2023-01-28T02:20:18;6.80;;;3.88;;
44512;SDS011;30219;50.588;9.504;2023-01-28T02:31:32;7.45;;;3.75;;
44512;SDS011;30219;50.588;9.504;2023-01-28T02:36:35;7.88;;;3.72;;
44512;SDS011;30219;50.588;9.504;2023-01-28T02:39:09;6.38;;;4.22;;
44512;SDS011;30219;50.588;9.504;2023-01-28T02:41:41;5.35;;;3.45;;
44512;SDS011;30219;50.588;9.504;2023-01-28T02:44:21;9.10;;;4.63;;
44512;SDS011;30219;50.588;9.504;2023-01-28T02:46:47;6.40;;;3.92;;
44512;SDS011;30219;50.588;9.504;2023-01-28T02:49:36;8.75;;;4.22;;
44512;SDS011;30219;50.588;9.504;2023-01-28T02:55:29;11.15;;;4.85;;
44512;SDS011;30219;50.588;9.504;2023-01-28T02:58:15;10.73;;;5.18;;
44512;SDS011;30219;50.588;9.504;2023-01-28T03:01:01;10.35;;;5.13;;
44512;SDS011;30219;50.588;9.504;2023-01-28T03:06:13;7.43;;;4.32;;
44512;SDS011;30219;50.588;9.504;2023-01-28T03:11:30;11.35;;;4.60;;
44512;SDS011;30219;50.588;9.504;2023-01-28T03:14:18;8.75;;;4.43;;
44512;SDS011;30219;50.588;9.504;2023-01-28T03:17:04;7.32;;;4.50;;
44512;SDS011;30219;50.588;9.504;2023-01-28T03:19:54;8.07;;;4.32;;
44512;SDS011;30219;50.588;9.504;2023-01-28T03:22:38;6.95;;;4.75;;
44512;SDS011;30219;50.588;9.504;2023-01-28T03:25:26;8.65;;;4.88;;
44512;SDS011;30219;50.588;9.504;2023-01-28T03:28:11;8.38;;;4.22;;
44512;SDS011;30219;50.588;9.504;2023-01-28T03:31:09;8.48;;;4.75;;
44512;SDS011;30219;50.588;9.504;2023-01-28T03:33:56;11.45;;;5.20;;
44512;SDS011;30219;50.588;9.504;2023-01-28T03:36:42;8.48;;;4.50;;
44512;SDS011;30219;50.588;9.504;2023-01-28T03:39:13;8.68;;;4.97;;
44512;SDS011;30219;50.588;9.504;2023-01-28T03:41:39;8.15;;;4.45;;
44512;SDS011;30219;50.588;9.504;2023-01-28T03:44:05;10.18;;;4.90;;
44512;SDS011;30219;50.588;9.504;2023-01-28T03:46:49;8.38;;;4.95;;
44512;SDS011;30219;50.588;9.504;2023-01-28T03:49:15;9.05;;;4.80;;
44512;SDS011;30219;50.588;9.504;2023-01-28T03:51:41;12.48;;;4.80;;
44512;SDS011;30219;50.588;9.504;2023-01-28T03:54:07;8.48;;;4.63;;
44512;SDS011;30219;50.588;9.504;2023-01-28T03:56:33;8.65;;;4.57;;
44512;SDS011;30219;50.588;9.504;2023-01-28T03:59:04;8.02;;;4.53;;
44512;SDS011;30219;50.588;9.504;2023-01-28T04:01:30;8.90;;;4.50;;
44512;SDS011;30219;50.588;9.504;2023-01-28T04:03:55;9.27;;;5.03;;
44512;SDS011;30219;50.588;9.504;2023-01-28T04:06:21;7.68;;;4.18;;
44512;SDS011;30219;50.588;9.504;2023-01-28T04:08:46;8.40;;;4.30;;
44512;SDS011;30219;50.588;9.504;2023-01-28T04:11:17;9.23;;;5.07;;
44512;SDS011;30219;50.588;9.504;2023-01-28T04:13:44;10.88;;;4.50;;
44512;SDS011;30219;50.588;9.504;2023-01-28T04:16:10;8.93;;;4.22;;
44512;SDS011;30219;50.588;9.504;2023-01-28T04:18:37;9.82;;;4.47;;
44512;SDS011;30219;50.588;9.504;2023-01-28T04:21:03;9.23;;;4.18;;
44512;SDS011;30219;50.588;9.504;2023-01-28T04:23:29;8.38;;;4.40;;
44512;SDS011;30219;50.588;9.504;2023-01-28T04:25:54;7.55;;;4.28;;
44512;SDS011;30219;50.588;9.504;2023-01-28T04:28:20;6.20;;;3.85;;
44512;SDS011;30219;50.588;9.504;2023-01-28T04:30:46;7.47;;;3.88;;
44512;SDS011;30219;50.588;9.504;2023-01-28T04:33:11;9.40;;;3.92;;
44512;SDS011;30219;50.588;9.504;2023-01-28T04:35:37;8.43;;;3.80;;
44512;SDS011;30219;50.588;9.504;2023-01-28T04:38:03;7.03;;;3.35;;
44512;SDS011;30219;50.588;9.504;2023-01-28T04:40:28;6.65;;;3.63;;
44512;SDS011;30219;50.588;9.504;2023-01-28T04:42:54;6.97;;;3.97;;
44512;SDS011;30219;50.588;9.504;2023-01-28T04:45:21;9.07;;;4.30;;
44512;SDS011;30219;50.588;9.504;2023-01-28T04:47:47;6.32;;;4.10;;
44512;SDS011;30219;50.588;9.504;2023-01-28T04:50:12;8.32;;;4.20;;
44512;SDS011;30219;50.588;9.504;2023-01-28T04:52:38;7.88;;;3.70;;
44512;SDS011;30219;50.588;9.504;2023-01-28T04:55:04;6.15;;;3.45;;
44512;SDS011;30219;50.588;9.504;2023-01-28T04:57:30;8.45;;;3.78;;
44512;SDS011;30219;50.588;9.504;2023-01-28T04:59:55;9.77;;;3.50;;
44512;SDS011;30219;50.588;9.504;2023-01-28T05:02:21;8.80;;;4.00;;
44512;SDS011;30219;50.588;9.504;2023-01-28T05:04:47;6.43;;;3.58;;
44512;SDS011;30219;50.588;9.504;2023-01-28T05:07:12;7.50;;;3.97;;
44512;SDS011;30219;50.588;9.504;2023-01-28T05:09:38;7.28;;;3.65;;
44512;SDS011;30219;50.588;9.504;2023-01-28T05:12:03;6.55;;;3.63;;
44512;SDS011;30219;50.588;9.504;2023-01-28T05:14:29;7.15;;;4.18;;
44512;SDS011;30219;50.588;9.504;2023-01-28T05:16:54;8.15;;;3.95;;
44512;SDS011;30219;50.588;9.504;2023-01-28T05:19:20;8.68;;;3.72;;
44512;SDS011;30219;50.588;9.504;2023-01-28T05:21:45;8.65;;;4.43;;
44512;SDS011;30219;50.588;9.504;2023-01-28T05:24:11;7.22;;;3.90;;
44512;SDS011;30219;50.588;9.504;2023-01-28T05:26:36;7.78;;;4.40;;
44512;SDS011;30219;50.588;9.504;2023-01-28T05:29:02;10.05;;;4.15;;
44512;SDS011;30219;50.588;9.504;2023-01-28T05:31:28;7.28;;;4.10;;
44512;SDS011;30219;50.588;9.504;2023-01-28T05:33:54;8.23;;;4.43;;
44512;SDS011;30219;50.588;9.504;2023-01-28T05:36:20;9.00;;;4.03;;
44512;SDS011;30219;50.588;9.504;2023-01-28T05:38:45;10.07;;;4.45;;
44512;SDS011;30219;50.588;9.504;2023-01-28T05:41:11;10.68;;;4.60;;
44512;SDS011;30219;50.588;9.504;2023-01-28T05:43:36;9.40;;;4.07;;
44512;SDS011;30219;50.588;9.504;2023-01-28T05:46:02;7.13;;;3.90;;
44512;SDS011;30219;50.588;9.504;2023-01-28T05:48:27;7.47;;;4.00;;
44512;SDS011;30219;50.588;9.504;2023-01-28T05:50:53;8.55;;;4.63;;
44512;SDS011;30219;50.588;9.504;2023-01-28T05:53:18;11.10;;;5.40;;
44512;SDS011;30219;50.588;9.504;2023-01-28T05:55:46;8.32;;;4.22;;
44512;SDS011;30219;50.588;9.504;2023-01-28T05:58:17;8.60;;;3.95;;
44512;SDS011;30219;50.588;9.504;2023-01-28T06:00:43;8.27;;;3.55;;
44512;SDS011;30219;50.588;9.504;2023-01-28T06:03:09;7.15;;;3.50;;
44512;SDS011;30219;50.588;9.504;2023-01-28T06:05:35;8.35;;;3.50;;
44512;SDS011;30219;50.588;9.504;2023-01-28T06:08:00;6.63;;;3.63;;
44512;SDS011;30219;50.588;9.504;2023-01-28T06:10:26;8.82;;;4.53;;
44512;SDS011;30219;50.588;9.504;2023-01-28T06:12:52;5.82;;;3.40;;
44512;SDS011;30219;50.588;9.504;2023-01-28T06:15:17;9.02;;;3.40;;
44512;SDS011;30219;50.588;9.504;2023-01-28T06:17:43;7.75;;;3.88;;
44512;SDS011;30219;50.588;9.504;2023-01-28T06:20:09;6.53;;;3.55;;
44512;SDS011;30219;50.588;9.504;2023-01-28T06:22:34;10.38;;;3.97;;
44512;SDS011;30219;50.588;9.504;2023-01-28T06:25:00;9.23;;;4.32;;
44512;SDS011;30219;50.588;9.504;2023-01-28T06:27:26;11.68;;;4.57;;
44512;SDS011;30219;50.588;9.504;2023-01-28T06:29:52;12.35;;;5.32;;
44512;SDS011;30219;50.588;9.504;2023-01-28T06:32:17;7.18;;;4.20;;
44512;SDS011;30219;50.588;9.504;2023-01-28T06:34:43;10.45;;;4.38;;
44512;SDS011;30219;50.588;9.504;2023-01-28T06:37:11;9.45;;;4.70;;
44512;SDS011;30219;50.588;9.504;2023-01-28T06:39:39;7.82;;;4.00;;
44512;SDS011;30219;50.588;9.504;2023-01-28T06:42:05;10.57;;;5.10;;
44512;SDS011;30219;50.588;9.504;2023-01-28T06:44:31;7.90;;;4.05;;
44512;SDS011;30219;50.588;9.504;2023-01-28T06:46:56;6.70;;;3.65;;
44512;SDS011;30219;50.588;9.504;2023-01-28T06:49:22;6.63;;;3.40;;
44512;SDS011;30219;50.588;9.504;2023-01-28T06:51:47;6.60;;;3.30;;
44512;SDS011;30219;50.588;9.504;2023-01-28T06:54:13;7.47;;;3.38;;
44512;SDS011;30219;50.588;9.504;2023-01-28T06:56:39;6.88;;;2.80;;
44512;SDS011;30219;50.588;9.504;2023-01-28T06:59:05;9.50;;;2.88;;
44512;SDS011;30219;50.588;9.504;2023-01-28T07:01:30;7.85;;;2.90;;
44512;SDS011;30219;50.588;9.504;2023-01-28T07:03:56;5.50;;;2.72;;
44512;SDS011;30219;50.588;9.504;2023-01-28T07:06:21;6.60;;;2.83;;
44512;SDS011;30219;50.588;9.504;2023-01-28T07:08:47;5.55;;;2.75;;
44512;SDS011;30219;50.588;9.504;2023-01-28T07:11:13;7.90;;;3.13;;
44512;SDS011;30219;50.588;9.504;2023-01-28T07:13:39;5.80;;;3.30;;
44512;SDS011;30219;50.588;9.504;2023-01-28T07:16:06;4.55;;;2.65;;
44512;SDS011;30219;50.588;9.504;2023-01-28T07:18:32;5.65;;;2.58;;
44512;SDS011;30219;50.588;9.504;2023-01-28T07:20:57;6.68;;;3.05;;
44512;SDS011;30219;50.588;9.504;2023-01-28T07:23:23;5.53;;;2.95;;
44512;SDS011;30219;50.588;9.504;2023-01-28T07:25:48;8.63;;;3.30;;
44512;SDS011;30219;50.588;9.504;2023-01-28T07:28:14;5.15;;;2.90;;
44512;SDS011;30219;50.588;9.504;2023-01-28T07:30:45;5.82;;;2.70;;
44512;SDS011;30219;50.588;9.504;2023-01-28T07:33:15;5.30;;;2.97;;
44512;SDS011;30219;50.588;9.504;2023-01-28T07:35:40;5.30;;;3.08;;
44512;SDS011;30219;50.588;9.504;2023-01-28T07:38:06;5.80;;;2.85;;
44512;SDS011;30219;50.588;9.504;2023-01-28T07:40:32;9.40;;;3.50;;
44512;SDS011;30219;50.588;9.504;2023-01-28T07:42:57;5.72;;;2.60;;
44512;SDS011;30219;50.588;9.504;2023-01-28T07:45:23;6.93;;;3.45;;
44512;SDS011;30219;50.588;9.504;2023-01-28T07:47:53;7.72;;;3.17;;
44512;SDS011;30219;50.588;9.504;2023-01-28T07:50:23;5.30;;;3.00;;
44512;SDS011;30219;50.588;9.504;2023-01-28T07:52:49;9.20;;;3.45;;
44512;SDS011;30219;50.588;9.504;2023-01-28T07:55:15;6.35;;;3.00;;
44512;SDS011;30219;50.588;9.504;2023-01-28T07:57:48;9.07;;;3.15;;
44512;SDS011;30219;50.588;9.504;2023-01-28T08:00:15;4.88;;;2.63;;
44512;SDS011;30219;50.588;9.504;2023-01-28T08:02:40;5.85;;;2.92;;
44512;SDS011;30219;50.588;9.504;2023-01-28T08:05:08;5.60;;;2.83;;
44512;SDS011;30219;50.588;9.504;2023-01-28T08:07:34;9.40;;;3.55;;
44512;SDS011;30219;50.588;9.504;2023-01-28T08:10:00;9.48;;;5.45;;
44512;SDS011;30219;50.588;9.504;2023-01-28T08:12:25;8.15;;;4.18;;
44512;SDS011;30219;50.588;9.504;2023-01-28T08:14:51;8.45;;;4.80;;
44512;SDS011;30219;50.588;9.504;2023-01-28T08:17:16;11.93;;;5.68;;
44512;SDS011;30219;50.588;9.504;2023-01-28T08:19:42;7.93;;;4.32;;
44512;SDS011;30219;50.588;9.504;2023-01-28T08:22:07;8.18;;;3.45;;
44512;SDS011;30219;50.588;9.504;2023-01-28T08:24:33;6.63;;;3.20;;
44512;SDS011;30219;50.588;9.504;2023-01-28T08:26:58;6.03;;;3.03;;
44512;SDS011;30219;50.588;9.504;2023-01-28T08:29:24;9.18;;;3.15;;
44512;SDS011;30219;50.588;9.504;2023-01-28T08:31:49;10.32;;;3.80;;
44512;SDS011;30219;50.588;9.504;2023-01-28T08:34:15;8.48;;;3.33;;
44512;SDS011;30219;50.588;9.504;2023-01-28T08:36:40;7.00;;;3.63;;
44512;SDS011;30219;50.588;9.504;2023-01-28T08:39:06;7.03;;;4.13;;
44512;SDS011;30219;50.588;9.504;2023-01-28T08:41:31;12.35;;;6.22;;
44512;SDS011;30219;50.588;9.504;2023-01-28T08:43:57;7.82;;;3.40;;
44512;SDS011;30219;50.588;9.504;2023-01-28T08:46:24;5.90;;;2.60;;
44512;SDS011;30219;50.588;9.504;2023-01-28T08:48:50;4.65;;;2.90;;
44512;SDS011;30219;50.588;9.504;2023-01-28T08:51:15;6.00;;;2.78;;
44512;SDS011;30219;50.588;9.504;2023-01-28T08:53:41;5.47;;;3.25;;
44512;SDS011;30219;50.588;9.504;2023-01-28T08:56:07;5.50;;;3.35;;
44512;SDS011;30219;50.588;9.504;2023-01-28T08:58:32;7.50;;;3.42;;
44512;SDS011;30219;50.588;9.504;2023-01-28T09:01:02;9.50;;;3.30;;
44512;SDS011;30219;50.588;9.504;2023-01-28T09:03:28;5.50;;;2.83;;
44512;SDS011;30219;50.588;9.504;2023-01-28T09:05:58;6.75;;;3.20;;
44512;SDS011;30219;50.588;9.504;2023-01-28T09:08:25;7.25;;;3.83;;
44512;SDS011;30219;50.588;9.504;2023-01-28T09:10:53;7.45;;;3.72;;
44512;SDS011;30219;50.588;9.504;2023-01-28T09:13:22;6.20;;;2.57;;
44512;SDS011;30219;50.588;9.504;2023-01-28T09:15:48;10.23;;;5.10;;
44512;SDS011;30219;50.588;9.504;2023-01-28T09:18:15;9.10;;;4.07;;
44512;SDS011;30219;50.588;9.504;2023-01-28T09:20:41;7.22;;;3.60;;
44512;SDS011;30219;50.588;9.504;2023-01-28T09:23:07;5.88;;;3.13;;
44512;SDS011;30219;50.588;9.504;2023-01-28T09:25:33;4.88;;;1.88;;
44512;SDS011;30219;50.588;9.504;2023-01-28T09:28:00;9.82;;;3.30;;
44512;SDS011;30219;50.588;9.504;2023-01-28T09:30:26;8.15;;;3.20;;
44512;SDS011;30219;50.588;9.504;2023-01-28T09:32:53;4.20;;;2.05;;
44512;SDS011;30219;50.588;9.504;2023-01-28T09:35:20;4.43;;;2.13;;
44512;SDS011;30219;50.588;9.504;2023-01-28T09:37:46;4.55;;;1.98;;
44512;SDS011;30219;50.588;9.504;2023-01-28T09:45:54;7.55;;;2.22;;
44512;SDS011;30219;50.588;9.504;2023-01-28T09:48:23;5.15;;;2.97;;
44512;SDS011;30219;50.588;9.504;2023-01-28T09:50:57;7.20;;;3.72;;
44512;SDS011;30219;50.588;9.504;2023-01-28T09:53:29;5.78;;;3.25;;
44512;SDS011;30219;50.588;9.504;2023-01-28T09:58:29;5.57;;;3.40;;
44512;SDS011;30219;50.588;9.504;2023-01-28T10:17:48;6.10;;;3.08;;
44512;SDS011;30219;50.588;9.504;2023-01-28T10:20:20;6.75;;;3.10;;
44512;SDS011;30219;50.588;9.504;2023-01-28T10:22:56;7.88;;;4.15;;
44512;SDS011;30219;50.588;9.504;2023-01-28T10:25:30;5.80;;;3.67;;
44512;SDS011;30219;50.588;9.504;2023-01-28T10:27:56;7.32;;;3.50;;
44512;SDS011;30219;50.588;9.504;2023-01-28T10:30:23;4.30;;;2.60;;
44512;SDS011;30219;50.588;9.504;2023-01-28T10:32:52;5.15;;;2.90;;
44512;SDS011;30219;50.588;9.504;2023-01-28T10:35:32;4.18;;;2.80;;
44512;SDS011;30219;50.588;9.504;2023-01-28T10:38:04;6.72;;;2.60;;
44512;SDS011;30219;50.588;9.504;2023-01-28T10:40:32;6.53;;;3.10;;
44512;SDS011;30219;50.588;9.504;2023-01-28T10:42:59;5.75;;;3.42;;
44512;SDS011;30219;50.588;9.504;2023-01-28T10:45:31;4.43;;;2.83;;
44512;SDS011;30219;50.588;9.504;2023-01-28T10:48:12;5.20;;;2.50;;
44512;SDS011;30219;50.588;9.504;2023-01-28T10:50:51;7.05;;;2.60;;
44512;SDS011;30219;50.588;9.504;2023-01-28T10:53:18;3.17;;;2.05;;
44512;SDS011;30219;50.588;9.504;2023-01-28T10:55:47;5.15;;;2.20;;
44512;SDS011;30219;50.588;9.504;2023-01-28T10:58:21;3.97;;;2.42;;
44512;SDS011;30219;50.588;9.504;2023-01-28T11:00:56;5.10;;;3.05;;
44512;SDS011;30219;50.588;9.504;2023-01-28T11:03:24;4.75;;;2.60;;
44512;SDS011;30219;50.588;9.504;2023-01-28T11:05:55;5.82;;;3.00;;
44512;SDS011;30219;50.588;9.504;2023-01-28T11:08:22;4.88;;;3.00;;
44512;SDS011;30219;50.588;9.504;2023-01-28T11:10:50;7.35;;;2.50;;
44512;SDS011;30219;50.588;9.504;2023-01-28T11:13:17;5.45;;;2.78;;
44512;SDS011;30219;50.588;9.504;2023-01-28T11:15:52;7.57;;;2.60;;
44512;SDS011;30219;50.588;9.504;2023-01-28T11:18:26;3.78;;;2.80;;
44512;SDS011;30219;50.588;9.504;2023-01-28T11:20:56;8.27;;;4.13;;
44512;SDS011;30219;50.588;9.504;2023-01-28T11:23:30;7.65;;;4.50;;
44512;SDS011;30219;50.588;9.504;2023-01-28T11:28:47;5.85;;;3.22;;
44512;SDS011;30219;50.588;9.504;2023-01-28T11:31:15;6.07;;;3.17;;
44512;SDS011;30219;50.588;9.504;2023-01-28T11:33:43;7.30;;;3.42;;
44512;SDS011;30219;50.588;9.504;2023-01-28T11:36:14;8.00;;;3.42;;
44512;SDS011;30219;50.588;9.504;2023-01-28T11:41:15;7.00;;;4.18;;
44512;SDS011;30219;50.588;9.504;2023-01-28T11:43:41;6.55;;;4.18;;
44512;SDS011;30219;50.588;9.504;2023-01-28T11:49:14;10.65;;;4.57;;
44512;SDS011;30219;50.588;9.504;2023-01-28T11:57:34;5.55;;;3.60;;
44512;SDS011;30219;50.588;9.504;2023-01-28T12:02:52;7.43;;;3.47;;
44512;SDS011;30219;50.588;9.504;2023-01-28T12:08:28;5.20;;;3.03;;
44512;SDS011;30219;50.588;9.504;2023-01-28T12:11:12;4.72;;;3.03;;
44512;SDS011;30219;50.588;9.504;2023-01-28T12:14:03;6.05;;;3.85;;
44512;SDS011;30219;50.588;9.504;2023-01-28T12:19:32;7.40;;;3.53;;
44512;SDS011;30219;50.588;9.504;2023-01-28T12:22:24;7.07;;;3.03;;
44512;SDS011;30219;50.588;9.504;2023-01-28T12:30:35;4.32;;;3.22;;
44512;SDS011;30219;50.588;9.504;2023-01-28T12:36:20;7.78;;;3.83;;
44512;SDS011;30219;50.588;9.504;2023-01-28T12:41:54;6.55;;;3.90;;
44512;SDS011;30219;50.588;9.504;2023-01-28T12:44:36;4.82;;;3.22;;
44512;SDS011;30219;50.588;9.504;2023-01-28T12:47:14;6.57;;;3.42;;
44512;SDS011;30219;50.588;9.504;2023-01-28T12:49:49;6.20;;;4.07;;
44512;SDS011;30219;50.588;9.504;2023-01-28T12:52:21;7.88;;;3.78;;
44512;SDS011;30219;50.588;9.504;2023-01-28T12:57:22;6.95;;;3.95;;
44512;SDS011;30219;50.588;9.504;2023-01-28T12:59:52;6.05;;;4.03;;
44512;SDS011;30219;50.588;9.504;2023-01-28T13:02:31;6.05;;;3.65;;
44512;SDS011;30219;50.588;9.504;2023-01-28T13:12:53;11.35;;;5.60;;
44512;SDS011;30219;50.588;9.504;2023-01-28T13:15:20;9.35;;;5.10;;
44512;SDS011;30219;50.588;9.504;2023-01-28T13:17:56;8.48;;;4.88;;
44512;SDS011;30219;50.588;9.504;2023-01-28T13:20:28;7.53;;;5.32;;
44512;SDS011;30219;50.588;9.504;2023-01-28T13:23:02;6.05;;;4.22;;
44512;SDS011;30219;50.588;9.504;2023-01-28T13:25:31;8.60;;;4.72;;
44512;SDS011;30219;50.588;9.504;2023-01-28T13:27:59;6.90;;;4.53;;
44512;SDS011;30219;50.588;9.504;2023-01-28T13:30:30;8.25;;;5.28;;
44512;SDS011;30219;50.588;9.504;2023-01-28T13:33:59;10.13;;;6.25;;
44512;SDS011;30219;50.588;9.504;2023-01-28T13:38:42;10.52;;;5.63;;
44512;SDS011;30219;50.588;9.504;2023-01-28T13:41:09;8.98;;;5.13;;
44512;SDS011;30219;50.588;9.504;2023-01-28T13:43:38;8.23;;;5.35;;
44512;SDS011;30219;50.588;9.504;2023-01-28T13:48:53;8.48;;;5.75;;
44512;SDS011;30219;50.588;9.504;2023-01-28T13:51:23;9.40;;;4.97;;
44512;SDS011;30219;50.588;9.504;2023-01-28T13:54:01;13.77;;;7.10;;
44512;SDS011;30219;50.588;9.504;2023-01-28T13:59:35;9.93;;;6.43;;
44512;SDS011;30219;50.588;9.504;2023-01-28T14:18:47;8.38;;;5.22;;
44512;SDS011;30219;50.588;9.504;2023-01-28T14:21:15;11.90;;;6.40;;
44512;SDS011;30219;50.588;9.504;2023-01-28T14:23:48;14.00;;;6.38;;
44512;SDS011;30219;50.588;9.504;2023-01-28T14:26:26;9.32;;;6.13;;
44512;SDS011;30219;50.588;9.504;2023-01-28T14:31:53;7.25;;;4.90;;
44512;SDS011;30219;50.588;9.504;2023-01-28T14:34:33;8.98;;;5.63;;
44512;SDS011;30219;50.588;9.504;2023-01-28T14:37:01;10.98;;;6.20;;
44512;SDS011;30219;50.588;9.504;2023-01-28T14:39:31;13.32;;;6.15;;
44512;SDS011;30219;50.588;9.504;2023-01-28T14:42:02;8.10;;;4.93;;
44512;SDS011;30219;50.588;9.504;2023-01-28T14:44:29;11.27;;;5.43;;
44512;SDS011;30219;50.588;9.504;2023-01-28T14:47:15;10.30;;;5.72;;
44512;SDS011;30219;50.588;9.504;2023-01-28T14:50:06;8.48;;;5.35;;
44512;SDS011;30219;50.588;9.504;2023-01-28T14:58:43;12.93;;;6.03;;
44512;SDS011;30219;50.588;9.504;2023-01-28T15:01:18;7.15;;;4.80;;
44512;SDS011;30219;50.588;9.504;2023-01-28T15:03:52;8.05;;;4.95;;
44512;SDS011;30219;50.588;9.504;2023-01-28T15:06:19;8.50;;;5.50;;
44512;SDS011;30219;50.588;9.504;2023-01-28T15:08:48;10.75;;;5.97;;
44512;SDS011;30219;50.588;9.504;2023-01-28T15:11:15;9.50;;;5.35;;
44512;SDS011;30219;50.588;9.504;2023-01-28T15:13:46;7.45;;;4.80;;
44512;SDS011;30219;50.588;9.504;2023-01-28T15:16:20;11.10;;;5.18;;
44512;SDS011;30219;50.588;9.504;2023-01-28T15:18:49;8.73;;;5.57;;
44512;SDS011;30219;50.588;9.504;2023-01-28T15:21:22;13.68;;;6.95;;
44512;SDS011;30219;50.588;9.504;2023-01-28T15:23:50;12.32;;;7.15;;
44512;SDS011;30219;50.588;9.504;2023-01-28T15:26:21;8.63;;;4.82;;
44512;SDS011;30219;50.588;9.504;2023-01-28T15:28:58;12.85;;;5.95;;
44512;SDS011;30219;50.588;9.504;2023-01-28T15:31:25;10.90;;;6.00;;
44512;SDS011;30219;50.588;9.504;2023-01-28T15:33:56;8.45;;;5.20;;
44512;SDS011;30219;50.588;9.504;2023-01-28T15:36:24;9.35;;;5.63;;
44512;SDS011;30219;50.588;9.504;2023-01-28T15:38:51;9.95;;;6.13;;
44512;SDS011;30219;50.588;9.504;2023-01-28T15:41:17;10.38;;;6.43;;
44512;SDS011;30219;50.588;9.504;2023-01-28T15:43:47;11.60;;;6.15;;
44512;SDS011;30219;50.588;9.504;2023-01-28T15:46:14;7.85;;;5.25;;
44512;SDS011;30219;50.588;9.504;2023-01-28T15:48:41;9.43;;;5.90;;
44512;SDS011;30219;50.588;9.504;2023-01-28T15:51:22;9.27;;;5.90;;
44512;SDS011;30219;50.588;9.504;2023-01-28T15:53:51;9.90;;;5.65;;
44512;SDS011;30219;50.588;9.504;2023-01-28T15:56:28;8.75;;;5.72;;
44512;SDS011;30219;50.588;9.504;2023-01-28T15:58:54;8.27;;;5.38;;
44512;SDS011;30219;50.588;9.504;2023-01-28T16:01:31;9.55;;;5.32;;
44512;SDS011;30219;50.588;9.504;2023-01-28T16:04:01;10.07;;;5.40;;
44512;SDS011;30219;50.588;9.504;2023-01-28T16:06:30;8.93;;;5.97;;
44512;SDS011;30219;50.588;9.504;2023-01-28T16:09:00;11.27;;;6.45;;
44512;SDS011;30219;50.588;9.504;2023-01-28T16:11:42;10.38;;;6.55;;
44512;SDS011;30219;50.588;9.504;2023-01-28T16:14:26;11.35;;;6.55;;
44512;SDS011;30219;50.588;9.504;2023-01-28T16:16:55;13.77;;;7.30;;
44512;SDS011;30219;50.588;9.504;2023-01-28T16:19:24;12.63;;;6.47;;
44512;SDS011;30219;50.588;9.504;2023-01-28T16:22:02;15.90;;;6.60;;
44512;SDS011;30219;50.588;9.504;2023-01-28T16:24:29;10.15;;;6.38;;
44512;SDS011;30219;50.588;9.504;2023-01-28T16:26:57;11.80;;;6.97;;
44512;SDS011;30219;50.588;9.504;2023-01-28T16:29:25;10.35;;;6.65;;
44512;SDS011;30219;50.588;9.504;2023-01-28T16:31:51;11.57;;;7.22;;
44512;SDS011;30219;50.588;9.504;2023-01-28T16:34:17;11.63;;;6.40;;
44512;SDS011;30219;50.588;9.504;2023-01-28T16:36:43;10.73;;;6.53;;
44512;SDS011;30219;50.588;9.504;2023-01-28T16:39:08;8.00;;;5.57;;
44512;SDS011;30219;50.588;9.504;2023-01-28T16:41:37;8.75;;;5.20;;
44512;SDS011;30219;50.588;9.504;2023-01-28T16:44:05;8.10;;;5.18;;
44512;SDS011;30219;50.588;9.504;2023-01-28T16:46:32;12.00;;;6.57;;
44512;SDS011;30219;50.588;9.504;2023-01-28T16:48:58;10.88;;;5.82;;
44512;SDS011;30219;50.588;9.504;2023-01-28T16:51:23;10.98;;;6.85;;
44512;SDS011;30219;50.588;9.504;2023-01-28T16:53:50;11.85;;;7.05;;
44512;SDS011;30219;50.588;9.504;2023-01-28T16:56:17;13.30;;;7.40;;
44512;SDS011;30219;50.588;9.504;2023-01-28T16:58:46;11.52;;;6.22;;
44512;SDS011;30219;50.588;9.504;2023-01-28T17:01:11;11.85;;;6.15;;
44512;SDS011;30219;50.588;9.504;2023-01-28T17:03:37;10.63;;;6.13;;
44512;SDS011;30219;50.588;9.504;2023-01-28T17:06:04;13.75;;;6.63;;